sensor_id;sensor_type;location;lat;lon;timestamp;temperature;humidity
68109;SHT30;54893;49.864;19.084;2023-04-03T00:04:39;1.49;96.56
68109;SHT30;54893;49.864;19.084;2023-04-03T00:09:40;1.32;97.38
68109;SHT30;54893;49.864;19.084;2023-04-03T00:14:40;1.31;97.93
68109;SHT30;54893;49.864;19.084;2023-04-03T00:19:41;1.35;97.32
68109;SHT30;54893;49.864;19.084;2023-04-03T00:24:41;1.38;97.46
68109;SHT30;54893;49.864;19.084;2023-04-03T00:29:42;1.28;97.16
68109;SHT30;54893;49.864;19.084;2023-04-03T00:34:42;1.31;97.34
68109;SHT30;54893;49.864;19.084;2023-04-03T00:39:42;1.38;97.06
68109;SHT30;54893;49.864;19.084;2023-04-03T00:49:46;1.46;97.19
68109;SHT30;54893;49.864;19.084;2023-04-03T00:54:49;1.34;96.67
68109;SHT30;54893;49.864;19.084;2023-04-03T00:59:53;1.32;96.93
68109;SHT30;54893;49.864;19.084;2023-04-03T01:04:54;1.31;96.98
68109;SHT30;54893;49.864;19.084;2023-04-03T01:09:57;1.18;97.05
68109;SHT30;54893;49.864;19.084;2023-04-03T01:15:00;1.19;97.52
68109;SHT30;54893;49.864;19.084;2023-04-03T01:25:34;1.21;96.96
68109;SHT30;54893;49.864;19.084;2023-04-03T01:30:44;1.22;96.85
68109;SHT30;54893;49.864;19.084;2023-04-03T01:35:46;1.24;96.54
68109;SHT30;54893;49.864;19.084;2023-04-03T01:40:47;1.19;96.65
68109;SHT30;54893;49.864;19.084;2023-04-03T01:45:47;1.19;96.14
68109;SHT30;54893;49.864;19.084;2023-04-03T01:50:49;1.24;95.49
68109;SHT30;54893;49.864;19.084;2023-04-03T01:55:49;1.15;96.03
68109;SHT30;54893;49.864;19.084;2023-04-03T02:00:51;1.11;96.19
68109;SHT30;54893;49.864;19.084;2023-04-03T02:05:51;1.24;95.13
68109;SHT30;54893;49.864;19.084;2023-04-03T02:10:52;1.22;95.10
68109;SHT30;54893;49.864;19.084;2023-04-03T02:15:52;1.22;95.19
68109;SHT30;54893;49.864;19.084;2023-04-03T02:20:52;1.22;94.76
68109;SHT30;54893;49.864;19.084;2023-04-03T02:25:53;1.16;94.96
68109;SHT30;54893;49.864;19.084;2023-04-03T02:30:53;1.24;94.80
68109;SHT30;54893;49.864;19.084;2023-04-03T02:35:55;1.09;95.43
68109;SHT30;54893;49.864;19.084;2023-04-03T02:41:06;1.18;95.00
68109;SHT30;54893;49.864;19.084;2023-04-03T02:46:07;1.11;95.62
68109;SHT30;54893;49.864;19.084;2023-04-03T02:51:07;1.15;95.02
68109;SHT30;54893;49.864;19.084;2023-04-03T02:56:07;1.15;95.15
68109;SHT30;54893;49.864;19.084;2023-04-03T03:01:08;1.14;95.31
68109;SHT30;54893;49.864;19.084;2023-04-03T03:06:12;1.01;94.99
68109;SHT30;54893;49.864;19.084;2023-04-03T03:11:12;0.92;95.64
68109;SHT30;54893;49.864;19.084;2023-04-03T03:16:13;0.94;95.79
68109;SHT30;54893;49.864;19.084;2023-04-03T03:21:13;0.92;95.86
68109;SHT30;54893;49.864;19.084;2023-04-03T03:26:14;0.98;95.73
68109;SHT30;54893;49.864;19.084;2023-04-03T03:31:15;0.95;95.64
68109;SHT30;54893;49.864;19.084;2023-04-03T03:36:15;0.89;95.21
68109;SHT30;54893;49.864;19.084;2023-04-03T03:41:15;1.05;94.95
68109;SHT30;54893;49.864;19.084;2023-04-03T03:46:16;0.89;94.81
68109;SHT30;54893;49.864;19.084;2023-04-03T03:51:16;0.89;94.08
68109;SHT30;54893;49.864;19.084;2023-04-03T03:56:17;1.01;93.58
68109;SHT30;54893;49.864;19.084;2023-04-03T04:01:17;0.91;94.24
68109;SHT30;54893;49.864;19.084;2023-04-03T04:06:18;0.84;94.18
68109;SHT30;54893;49.864;19.084;2023-04-03T04:11:18;0.92;93.71
68109;SHT30;54893;49.864;19.084;2023-04-03T04:16:19;1.02;93.13
68109;SHT30;54893;49.864;19.084;2023-04-03T04:21:19;0.81;93.73
68109;SHT30;54893;49.864;19.084;2023-04-03T04:26:19;0.75;93.99
68109;SHT30;54893;49.864;19.084;2023-04-03T04:31:21;0.70;93.45
68109;SHT30;54893;49.864;19.084;2023-04-03T04:36:21;0.60;93.49
68109;SHT30;54893;49.864;19.084;2023-04-03T04:41:22;0.53;93.87
68109;SHT30;54893;49.864;19.084;2023-04-03T04:46:23;0.34;94.74
68109;SHT30;54893;49.864;19.084;2023-04-03T04:51:23;0.26;94.75
68109;SHT30;54893;49.864;19.084;2023-04-03T04:56:23;0.17;95.25
68109;SHT30;54893;49.864;19.084;2023-04-03T05:01:25;0.03;95.95
68109;SHT30;54893;49.864;19.084;2023-04-03T05:06:25;0.11;95.79
68109;SHT30;54893;49.864;19.084;2023-04-03T05:11:26;0.02;96.39
68109;SHT30;54893;49.864;19.084;2023-04-03T05:16:27;-0.03;97.28
68109;SHT30;54893;49.864;19.084;2023-04-03T05:21:28;-0.07;97.74
68109;SHT30;54893;49.864;19.084;2023-04-03T05:26:32;0.05;97.03
68109;SHT30;54893;49.864;19.084;2023-04-03T05:31:32;0.03;97.67
68109;SHT30;54893;49.864;19.084;2023-04-03T05:36:32;0.21;96.30
68109;SHT30;54893;49.864;19.084;2023-04-03T05:41:33;0.05;95.34
68109;SHT30;54893;49.864;19.084;2023-04-03T05:46:33;0.03;94.09
68109;SHT30;54893;49.864;19.084;2023-04-03T05:51:35;0.16;94.76
68109;SHT30;54893;49.864;19.084;2023-04-03T05:56:36;0.10;95.28
68109;SHT30;54893;49.864;19.084;2023-04-03T06:01:36;0.09;94.46
68109;SHT30;54893;49.864;19.084;2023-04-03T06:06:45;0.09;94.90
68109;SHT30;54893;49.864;19.084;2023-04-03T06:11:45;0.17;95.15
68109;SHT30;54893;49.864;19.084;2023-04-03T06:16:47;0.27;95.07
68109;SHT30;54893;49.864;19.084;2023-04-03T06:21:47;0.49;94.50
68109;SHT30;54893;49.864;19.084;2023-04-03T06:26:48;0.09;93.76
68109;SHT30;54893;49.864;19.084;2023-04-03T06:31:49;0.03;93.70
68109;SHT30;54893;49.864;19.084;2023-04-03T06:36:50;-0.01;92.52
68109;SHT30;54893;49.864;19.084;2023-04-03T06:41:50;0.31;92.42
68109;SHT30;54893;49.864;19.084;2023-04-03T06:46:51;0.46;90.86
68109;SHT30;54893;49.864;19.084;2023-04-03T06:51:51;0.99;90.84
68109;SHT30;54893;49.864;19.084;2023-04-03T06:56:52;1.35;90.22
68109;SHT30;54893;49.864;19.084;2023-04-03T07:01:52;1.48;90.07
68109;SHT30;54893;49.864;19.084;2023-04-03T07:06:53;1.39;88.44
68109;SHT30;54893;49.864;19.084;2023-04-03T07:11:53;1.60;87.17
68109;SHT30;54893;49.864;19.084;2023-04-03T07:16:53;2.24;85.10
68109;SHT30;54893;49.864;19.084;2023-04-03T07:21:54;2.17;84.14
68109;SHT30;54893;49.864;19.084;2023-04-03T07:26:54;2.04;85.78
68109;SHT30;54893;49.864;19.084;2023-04-03T07:31:55;1.80;85.96
68109;SHT30;54893;49.864;19.084;2023-04-03T07:36:56;1.45;87.01
68109;SHT30;54893;49.864;19.084;2023-04-03T07:41:56;1.26;87.24
68109;SHT30;54893;49.864;19.084;2023-04-03T07:46:57;0.87;85.93
68109;SHT30;54893;49.864;19.084;2023-04-03T07:51:57;1.19;87.04
68109;SHT30;54893;49.864;19.084;2023-04-03T07:56:58;1.11;87.04
68109;SHT30;54893;49.864;19.084;2023-04-03T08:01:59;0.92;86.85
68109;SHT30;54893;49.864;19.084;2023-04-03T08:06:59;0.71;87.69
68109;SHT30;54893;49.864;19.084;2023-04-03T08:11:59;0.96;85.34
68109;SHT30;54893;49.864;19.084;2023-04-03T08:17:01;1.19;81.70
68109;SHT30;54893;49.864;19.084;2023-04-03T08:22:03;1.67;79.89
68109;SHT30;54893;49.864;19.084;2023-04-03T08:27:03;2.40;78.29
68109;SHT30;54893;49.864;19.084;2023-04-03T08:32:07;2.78;76.43
68109;SHT30;54893;49.864;19.084;2023-04-03T08:37:07;2.44;76.91
68109;SHT30;54893;49.864;19.084;2023-04-03T08:42:19;2.77;75.81
68109;SHT30;54893;49.864;19.084;2023-04-03T08:47:28;3.44;75.05
68109;SHT30;54893;49.864;19.084;2023-04-03T08:52:56;2.72;72.38
68109;SHT30;54893;49.864;19.084;2023-04-03T08:58:01;2.98;71.60
68109;SHT30;54893;49.864;19.084;2023-04-03T09:03:02;3.39;69.35
68109;SHT30;54893;49.864;19.084;2023-04-03T09:13:24;2.57;67.68
68109;SHT30;54893;49.864;19.084;2023-04-03T09:18:30;2.71;70.52
68109;SHT30;54893;49.864;19.084;2023-04-03T09:23:39;2.78;69.76
68109;SHT30;54893;49.864;19.084;2023-04-03T09:28:42;3.46;69.10
68109;SHT30;54893;49.864;19.084;2023-04-03T09:33:44;3.30;68.00
68109;SHT30;54893;49.864;19.084;2023-04-03T09:38:45;3.35;67.08
68109;SHT30;54893;49.864;19.084;2023-04-03T09:43:53;3.11;67.38
68109;SHT30;54893;49.864;19.084;2023-04-03T09:48:59;2.41;69.17
68109;SHT30;54893;49.864;19.084;2023-04-03T09:59:28;2.52;67.80
68109;SHT30;54893;49.864;19.084;2023-04-03T10:04:40;2.96;65.85
68109;SHT30;54893;49.864;19.084;2023-04-03T10:09:54;3.28;63.96
68109;SHT30;54893;49.864;19.084;2023-04-03T10:14:59;3.79;65.89
68109;SHT30;54893;49.864;19.084;2023-04-03T10:30:58;3.44;66.02
68109;SHT30;54893;49.864;19.084;2023-04-03T10:36:29;3.12;63.79
68109;SHT30;54893;49.864;19.084;2023-04-03T10:41:47;3.79;65.02
68109;SHT30;54893;49.864;19.084;2023-04-03T10:46:53;3.53;65.46
68109;SHT30;54893;49.864;19.084;2023-04-03T10:52:20;3.53;64.64
68109;SHT30;54893;49.864;19.084;2023-04-03T10:57:23;3.76;65.33
68109;SHT30;54893;49.864;19.084;2023-04-03T11:02:31;3.53;65.09
68109;SHT30;54893;49.864;19.084;2023-04-03T11:07:38;3.84;64.82
68109;SHT30;54893;49.864;19.084;2023-04-03T11:12:44;4.01;65.72
68109;SHT30;54893;49.864;19.084;2023-04-03T11:18:04;3.32;63.76
68109;SHT30;54893;49.864;19.084;2023-04-03T11:23:16;4.25;61.98
68109;SHT30;54893;49.864;19.084;2023-04-03T11:28:19;3.35;60.62
68109;SHT30;54893;49.864;19.084;2023-04-03T11:38:33;4.81;62.17
68109;SHT30;54893;49.864;19.084;2023-04-03T11:43:41;3.55;61.79
68109;SHT30;54893;49.864;19.084;2023-04-03T11:48:44;3.64;64.89
68109;SHT30;54893;49.864;19.084;2023-04-03T11:53:45;3.80;62.49
68109;SHT30;54893;49.864;19.084;2023-04-03T12:04:07;3.93;65.70
68109;SHT30;54893;49.864;19.084;2023-04-03T12:09:26;3.77;62.21
68109;SHT30;54893;49.864;19.084;2023-04-03T12:14:28;3.69;62.38
68109;SHT30;54893;49.864;19.084;2023-04-03T12:19:31;3.60;61.40
68109;SHT30;54893;49.864;19.084;2023-04-03T12:24:37;3.67;64.97
68109;SHT30;54893;49.864;19.084;2023-04-03T12:29:49;4.54;62.92
68109;SHT30;54893;49.864;19.084;2023-04-03T12:45:23;4.14;65.88
68109;SHT30;54893;49.864;19.084;2023-04-03T12:50:28;4.41;64.35
68109;SHT30;54893;49.864;19.084;2023-04-03T12:55:30;5.03;62.28
68109;SHT30;54893;49.864;19.084;2023-04-03T13:00:34;5.33;61.98
68109;SHT30;54893;49.864;19.084;2023-04-03T13:05:34;5.25;63.94
68109;SHT30;54893;49.864;19.084;2023-04-03T13:10:51;4.60;61.30
68109;SHT30;54893;49.864;19.084;2023-04-03T13:15:53;4.97;63.32
68109;SHT30;54893;49.864;19.084;2023-04-03T13:21:00;5.94;61.54
68109;SHT30;54893;49.864;19.084;2023-04-03T13:26:02;6.08;61.13
68109;SHT30;54893;49.864;19.084;2023-04-03T13:36:23;5.51;57.38
68109;SHT30;54893;49.864;19.084;2023-04-03T13:41:34;5.37;59.82
68109;SHT30;54893;49.864;19.084;2023-04-03T13:46:35;4.22;59.38
68109;SHT30;54893;49.864;19.084;2023-04-03T13:51:38;4.11;59.47
68109;SHT30;54893;49.864;19.084;2023-04-03T13:56:39;3.74;57.43
68109;SHT30;54893;49.864;19.084;2023-04-03T14:01:47;3.97;58.34
68109;SHT30;54893;49.864;19.084;2023-04-03T14:06:50;3.48;63.22
68109;SHT30;54893;49.864;19.084;2023-04-03T14:11:59;3.70;60.38
68109;SHT30;54893;49.864;19.084;2023-04-03T14:17:03;4.20;58.84
68109;SHT30;54893;49.864;19.084;2023-04-03T14:22:14;4.33;60.39
68109;SHT30;54893;49.864;19.084;2023-04-03T14:27:36;4.33;59.06
68109;SHT30;54893;49.864;19.084;2023-04-03T14:32:37;4.68;57.69
68109;SHT30;54893;49.864;19.084;2023-04-03T14:37:38;4.61;59.00
68109;SHT30;54893;49.864;19.084;2023-04-03T14:42:39;3.94;59.01
68109;SHT30;54893;49.864;19.084;2023-04-03T14:47:46;4.18;63.66
68109;SHT30;54893;49.864;19.084;2023-04-03T14:52:51;4.54;62.31
68109;SHT30;54893;49.864;19.084;2023-04-03T14:57:52;5.16;62.33
68109;SHT30;54893;49.864;19.084;2023-04-03T15:02:53;4.96;59.51
68109;SHT30;54893;49.864;19.084;2023-04-03T15:07:54;5.23;60.29
68109;SHT30;54893;49.864;19.084;2023-04-03T15:12:57;5.03;60.67
68109;SHT30;54893;49.864;19.084;2023-04-03T15:17:57;6.92;57.66
68109;SHT30;54893;49.864;19.084;2023-04-03T15:22:58;4.99;61.27
68109;SHT30;54893;49.864;19.084;2023-04-03T15:28:01;3.94;59.41
68109;SHT30;54893;49.864;19.084;2023-04-03T15:33:01;5.94;57.68
68109;SHT30;54893;49.864;19.084;2023-04-03T15:38:02;6.44;51.98
68109;SHT30;54893;49.864;19.084;2023-04-03T15:43:02;4.99;56.79
68109;SHT30;54893;49.864;19.084;2023-04-03T15:48:04;4.67;58.77
68109;SHT30;54893;49.864;19.084;2023-04-03T15:53:05;4.14;57.13
68109;SHT30;54893;49.864;19.084;2023-04-03T15:58:05;4.11;57.82
68109;SHT30;54893;49.864;19.084;2023-04-03T16:03:12;3.95;58.78
68109;SHT30;54893;49.864;19.084;2023-04-03T16:08:15;3.69;56.18
68109;SHT30;54893;49.864;19.084;2023-04-03T16:13:17;3.18;58.95
68109;SHT30;54893;49.864;19.084;2023-04-03T16:18:18;3.06;58.43
68109;SHT30;54893;49.864;19.084;2023-04-03T16:23:18;2.80;59.79
68109;SHT30;54893;49.864;19.084;2023-04-03T16:28:19;2.60;61.60
68109;SHT30;54893;49.864;19.084;2023-04-03T16:33:19;2.60;61.22
68109;SHT30;54893;49.864;19.084;2023-04-03T16:38:22;2.47;62.08
68109;SHT30;54893;49.864;19.084;2023-04-03T16:43:22;2.42;62.71
68109;SHT30;54893;49.864;19.084;2023-04-03T16:48:23;2.36;62.84
68109;SHT30;54893;49.864;19.084;2023-04-03T16:53:24;2.11;63.29
68109;SHT30;54893;49.864;19.084;2023-04-03T16:58:25;1.90;63.14
68109;SHT30;54893;49.864;19.084;2023-04-03T17:03:25;1.86;63.40
68109;SHT30;54893;49.864;19.084;2023-04-03T17:08:28;1.60;64.58
68109;SHT30;54893;49.864;19.084;2023-04-03T17:13:28;1.52;63.31
68109;SHT30;54893;49.864;19.084;2023-04-03T17:18:33;1.19;64.78
68109;SHT30;54893;49.864;19.084;2023-04-03T17:23:34;0.96;66.39
68109;SHT30;54893;49.864;19.084;2023-04-03T17:28:36;0.77;66.39
68109;SHT30;54893;49.864;19.084;2023-04-03T17:33:36;0.67;70.26
68109;SHT30;54893;49.864;19.084;2023-04-03T17:38:37;0.82;67.40
68109;SHT30;54893;49.864;19.084;2023-04-03T17:43:37;0.75;67.47
68109;SHT30;54893;49.864;19.084;2023-04-03T17:48:39;0.92;67.88
68109;SHT30;54893;49.864;19.084;2023-04-03T17:53:40;0.82;68.63
68109;SHT30;54893;49.864;19.084;2023-04-03T17:58:41;0.71;70.59
68109;SHT30;54893;49.864;19.084;2023-04-03T18:03:42;0.68;70.37
68109;SHT30;54893;49.864;19.084;2023-04-03T18:08:55;0.62;71.70
68109;SHT30;54893;49.864;19.084;2023-04-03T18:13:59;0.68;70.77
68109;SHT30;54893;49.864;19.084;2023-04-03T18:19:01;0.70;69.82
68109;SHT30;54893;49.864;19.084;2023-04-03T18:24:03;0.62;70.29
68109;SHT30;54893;49.864;19.084;2023-04-03T18:29:04;0.72;70.77
68109;SHT30;54893;49.864;19.084;2023-04-03T18:34:07;0.94;68.82
68109;SHT30;54893;49.864;19.084;2023-04-03T18:39:08;0.92;69.57
68109;SHT30;54893;49.864;19.084;2023-04-03T18:44:11;0.98;68.84
68109;SHT30;54893;49.864;19.084;2023-04-03T18:49:13;1.04;68.45
68109;SHT30;54893;49.864;19.084;2023-04-03T18:54:14;1.06;68.62
68109;SHT30;54893;49.864;19.084;2023-04-03T18:59:15;1.05;69.23
68109;SHT30;54893;49.864;19.084;2023-04-03T19:04:16;0.95;69.96
68109;SHT30;54893;49.864;19.084;2023-04-03T19:09:16;1.02;68.06
68109;SHT30;54893;49.864;19.084;2023-04-03T19:14:17;0.94;69.74
68109;SHT30;54893;49.864;19.084;2023-04-03T19:19:17;0.94;69.38
68109;SHT30;54893;49.864;19.084;2023-04-03T19:24:18;0.98;69.47
68109;SHT30;54893;49.864;19.084;2023-04-03T19:29:18;0.95;69.32
68109;SHT30;54893;49.864;19.084;2023-04-03T19:34:18;0.96;68.64
68109;SHT30;54893;49.864;19.084;2023-04-03T19:39:19;0.92;69.21
68109;SHT30;54893;49.864;19.084;2023-04-03T19:44:19;0.91;69.55
68109;SHT30;54893;49.864;19.084;2023-04-03T19:49:20;0.85;70.28
68109;SHT30;54893;49.864;19.084;2023-04-03T19:54:21;0.80;70.81
68109;SHT30;54893;49.864;19.084;2023-04-03T19:59:22;0.75;70.70
68109;SHT30;54893;49.864;19.084;2023-04-03T20:04:22;0.74;71.04
68109;SHT30;54893;49.864;19.084;2023-04-03T20:09:23;0.75;70.92
68109;SHT30;54893;49.864;19.084;2023-04-03T20:14:23;0.70;71.47
68109;SHT30;54893;49.864;19.084;2023-04-03T20:19:23;0.62;73.74
68109;SHT30;54893;49.864;19.084;2023-04-03T20:24:25;0.54;73.20
68109;SHT30;54893;49.864;19.084;2023-04-03T20:29:27;0.82;71.09
68109;SHT30;54893;49.864;19.084;2023-04-03T20:34:28;0.74;72.10
68109;SHT30;54893;49.864;19.084;2023-04-03T20:39:28;0.72;71.73
68109;SHT30;54893;49.864;19.084;2023-04-03T20:44:29;0.64;73.41
68109;SHT30;54893;49.864;19.084;2023-04-03T20:49:31;0.56;72.68
68109;SHT30;54893;49.864;19.084;2023-04-03T20:54:31;0.61;72.22
68109;SHT30;54893;49.864;19.084;2023-04-03T20:59:32;0.64;73.23
68109;SHT30;54893;49.864;19.084;2023-04-03T21:04:42;0.61;73.55
68109;SHT30;54893;49.864;19.084;2023-04-03T21:20:51;0.56;73.27
68109;SHT30;54893;49.864;19.084;2023-04-03T21:25:52;0.50;74.76
68109;SHT30;54893;49.864;19.084;2023-04-03T21:30:52;0.53;73.30
68109;SHT30;54893;49.864;19.084;2023-04-03T21:35:52;0.58;73.44
68109;SHT30;54893;49.864;19.084;2023-04-03T21:40:57;0.58;73.94
68109;SHT30;54893;49.864;19.084;2023-04-03T21:45:58;0.58;72.78
68109;SHT30;54893;49.864;19.084;2023-04-03T21:51:05;0.58;74.60
68109;SHT30;54893;49.864;19.084;2023-04-03T21:56:05;0.51;74.48
68109;SHT30;54893;49.864;19.084;2023-04-03T22:01:10;0.56;73.93
68109;SHT30;54893;49.864;19.084;2023-04-03T22:06:12;0.60;73.08
68109;SHT30;54893;49.864;19.084;2023-04-03T22:11:13;0.58;73.45
68109;SHT30;54893;49.864;19.084;2023-04-03T22:16:14;0.49;73.50
68109;SHT30;54893;49.864;19.084;2023-04-03T22:21:15;0.30;74.09
68109;SHT30;54893;49.864;19.084;2023-04-03T22:26:15;0.37;73.89
68109;SHT30;54893;49.864;19.084;2023-04-03T22:31:16;0.40;75.10
68109;SHT30;54893;49.864;19.084;2023-04-03T22:36:16;0.51;73.98
68109;SHT30;54893;49.864;19.084;2023-04-03T22:41:17;0.36;74.95
68109;SHT30;54893;49.864;19.084;2023-04-03T22:46:17;0.14;75.09
68109;SHT30;54893;49.864;19.084;2023-04-03T22:51:17;-0.01;75.32
68109;SHT30;54893;49.864;19.084;2023-04-03T22:56:18;-0.04;75.44
68109;SHT30;54893;49.864;19.084;2023-04-03T23:01:18;-0.13;75.63
68109;SHT30;54893;49.864;19.084;2023-04-03T23:06:19;-0.31;76.46
68109;SHT30;54893;49.864;19.084;2023-04-03T23:11:19;-0.49;76.39
68109;SHT30;54893;49.864;19.084;2023-04-03T23:16:20;-0.59;78.22
68109;SHT30;54893;49.864;19.084;2023-04-03T23:21:20;-0.59;78.15
68109;SHT30;54893;49.864;19.084;2023-04-03T23:26:21;-0.57;77.70
68109;SHT30;54893;49.864;19.084;2023-04-03T23:31:24;-0.61;78.25
68109;SHT30;54893;49.864;19.084;2023-04-03T23:36:25;-0.69;78.90
68109;SHT30;54893;49.864;19.084;2023-04-03T23:41:25;-0.79;79.04
68109;SHT30;54893;49.864;19.084;2023-04-03T23:46:25;-0.72;79.17
68109;SHT30;54893;49.864;19.084;2023-04-03T23:51:26;-0.72;79.65
68109;SHT30;54893;49.864;19.084;2023-04-03T23:56:26;-0.85;80.37
